createdAt,value
2023-05-21T00:02:59.135Z,1.92
2023-05-21T00:06:03.996Z,2.13
2023-05-21T00:09:08.377Z,2.10
2023-05-21T00:12:13.292Z,2.63
2023-05-21T00:15:18.209Z,2.33
2023-05-21T00:18:25.436Z,2.15
2023-05-21T00:21:31.839Z,1.77
2023-05-21T00:24:40.174Z,1.48
2023-05-21T00:27:46.354Z,1.92
2023-05-21T00:30:58.829Z,1.77
2023-05-21T00:34:07.513Z,2.00
2023-05-21T00:37:15.312Z,1.95
2023-05-21T00:40:19.675Z,1.85
2023-05-21T00:43:28.377Z,1.73
2023-05-21T00:46:51.707Z,2.03
2023-05-21T00:49:59.279Z,2.00
2023-05-21T00:53:11.277Z,2.17
2023-05-21T00:56:23.370Z,1.70
2023-05-21T00:59:33.978Z,2.35
2023-05-21T01:06:20.862Z,1.80
2023-05-21T01:09:26.899Z,1.90
2023-05-21T01:12:33.150Z,2.55
2023-05-21T01:15:39.027Z,2.38
2023-05-21T01:18:45.216Z,2.28
2023-05-21T01:22:00.414Z,2.13
2023-05-21T01:25:06.688Z,1.92
2023-05-21T01:28:11.239Z,1.95
2023-05-21T01:31:37.962Z,1.90
2023-05-21T01:35:17.729Z,1.80
2023-05-21T01:38:43.653Z,1.77
2023-05-21T01:41:50.641Z,1.83
2023-05-21T01:44:57.407Z,1.55
2023-05-21T01:48:05.710Z,1.60
2023-05-21T01:51:11.561Z,1.70
2023-05-21T01:54:20.446Z,2.10
2023-05-21T01:57:27.008Z,2.05
2023-05-21T02:00:32.796Z,2.38
2023-05-21T02:03:40.387Z,2.05
2023-05-21T02:06:46.378Z,2.30
2023-05-21T02:09:51.210Z,2.50
2023-05-21T02:12:59.226Z,2.47
2023-05-21T02:16:04.907Z,2.25
2023-05-21T02:19:10.613Z,2.40
2023-05-21T02:22:18.231Z,2.15
2023-05-21T02:25:27.424Z,2.38
2023-05-21T02:28:36.546Z,2.35
2023-05-21T02:31:43.603Z,2.10
2023-05-21T02:34:48.156Z,2.50
2023-05-21T02:37:52.955Z,1.95
2023-05-21T02:40:58.888Z,1.92
2023-05-21T02:44:05.655Z,2.70
2023-05-21T02:47:10.538Z,2.40
2023-05-21T02:50:15.214Z,2.72
2023-05-21T02:53:19.514Z,2.42
2023-05-21T02:56:24.809Z,2.53
2023-05-21T02:59:29.207Z,2.28
2023-05-21T03:02:33.536Z,2.78
2023-05-21T03:05:38.321Z,2.88
2023-05-21T03:08:42.829Z,2.60
2023-05-21T03:11:47.239Z,3.08
2023-05-21T03:14:53.807Z,2.80
2023-05-21T03:18:02.337Z,3.40
2023-05-21T03:21:09.949Z,3.50
2023-05-21T03:24:15.550Z,2.78
2023-05-21T03:27:20.842Z,3.13
2023-05-21T03:30:27.716Z,3.22
2023-05-21T03:33:32.252Z,3.15
2023-05-21T03:36:37.150Z,3.60
2023-05-21T03:39:41.648Z,2.95
2023-05-21T03:42:45.996Z,3.72
2023-05-21T03:45:52.439Z,3.75
2023-05-21T03:48:58.301Z,3.63
2023-05-21T03:52:02.950Z,3.80
2023-05-21T03:55:07.963Z,3.72
2023-05-21T04:01:06.278Z,3.55
2023-05-21T04:08:42.720Z,4.78
2023-05-21T04:11:55.264Z,4.15
2023-05-21T04:15:05.747Z,3.08
2023-05-21T04:18:21.782Z,4.18
2023-05-21T04:25:53.664Z,4.65
2023-05-21T04:29:07.832Z,5.32
2023-05-21T04:38:12.224Z,6.20
2023-05-21T04:41:49.912Z,4.55
2023-05-21T04:45:10.122Z,4.50
2023-05-21T04:48:31.357Z,4.18
2023-05-21T04:51:41.947Z,4.28
2023-05-21T04:54:48.503Z,4.45
2023-05-21T04:57:56.997Z,4.60
2023-05-21T05:05:28.512Z,4.53
2023-05-21T05:18:22.563Z,4.68
2023-05-21T05:22:44.123Z,5.22
2023-05-21T05:26:07.754Z,4.95
2023-05-21T05:39:07.675Z,4.30
2023-05-21T05:42:38.960Z,4.72
2023-05-21T05:46:16.239Z,5.47
2023-05-21T05:49:49.266Z,4.60
2023-05-21T05:52:56.544Z,4.80
2023-05-21T05:56:04.623Z,4.70
2023-05-21T06:02:40.403Z,5.47
2023-05-21T06:06:21.095Z,4.85
2023-05-21T06:09:27.993Z,4.78
2023-05-21T06:12:32.780Z,5.18
2023-05-21T06:15:44.291Z,5.97
2023-05-21T06:19:04.063Z,5.68
2023-05-21T06:22:13.295Z,5.43
2023-05-21T06:25:18.586Z,6.10
2023-05-21T06:28:23.369Z,6.05
2023-05-21T06:31:33.183Z,6.20
2023-05-21T06:34:38.179Z,6.57
2023-05-21T06:37:44.334Z,6.53
2023-05-21T06:40:50.980Z,7.57
2023-05-21T06:43:55.977Z,7.47
2023-05-21T06:47:04.820Z,6.47
2023-05-21T06:50:09.738Z,7.40
2023-05-21T06:53:16.342Z,7.80
2023-05-21T06:56:22.865Z,8.20
2023-05-21T06:59:33.960Z,8.18
2023-05-21T07:15:24.563Z,7.13
2023-05-21T07:18:35.651Z,7.30
2023-05-21T07:21:39.811Z,8.93
2023-05-21T07:24:44.189Z,9.27
2023-05-21T09:31:16.110Z,11.32
2023-05-21T14:04:47.866Z,11.00
2023-05-21T14:08:33.084Z,10.03
2023-05-21T14:12:16.954Z,9.45
2023-05-21T15:09:19.655Z,10.90
2023-05-21T15:47:57.004Z,9.38
2023-05-21T15:51:33.740Z,10.18
2023-05-21T17:25:35.076Z,10.65
2023-05-21T17:28:39.557Z,10.38
2023-05-21T17:31:43.937Z,9.77
2023-05-21T17:34:48.664Z,10.57
2023-05-21T17:37:57.425Z,11.68
2023-05-21T17:41:05.753Z,11.35
2023-05-21T17:44:19.113Z,10.60
2023-05-21T17:47:47.349Z,10.23
2023-05-21T17:50:55.195Z,10.65
2023-05-21T17:54:21.740Z,11.77
2023-05-21T17:57:37.281Z,11.43
2023-05-21T18:01:31.308Z,11.85
2023-05-21T18:04:41.494Z,11.93
2023-05-21T18:07:53.405Z,10.02
2023-05-21T18:10:58.232Z,9.50
2023-05-21T18:14:09.581Z,10.27
2023-05-21T18:17:14.242Z,9.88
2023-05-21T18:20:20.730Z,11.32
2023-05-21T18:23:31.587Z,11.65
2023-05-21T18:26:38.253Z,11.50
2023-05-21T18:29:45.209Z,10.48
2023-05-21T18:32:51.968Z,11.60
2023-05-21T18:35:59.052Z,25.10
2023-05-21T18:39:09.685Z,14.98
2023-05-21T18:42:14.700Z,13.48
2023-05-21T18:45:22.664Z,10.90
2023-05-21T18:48:29.835Z,12.85
2023-05-21T18:51:37.406Z,11.77
2023-05-21T18:54:53.600Z,11.23
2023-05-21T18:58:20.395Z,12.38
2023-05-21T19:01:50.025Z,10.73
2023-05-21T19:05:02.951Z,11.00
2023-05-21T19:08:18.193Z,12.65
2023-05-21T19:11:24.093Z,12.25
2023-05-21T19:14:31.575Z,11.20
2023-05-21T19:17:40.103Z,11.60
2023-05-21T19:20:46.848Z,11.82
2023-05-21T19:31:41.768Z,10.60
2023-05-21T19:35:32.425Z,10.52
2023-05-21T19:39:22.160Z,11.32
2023-05-21T19:42:57.886Z,10.98
2023-05-21T19:46:53.321Z,11.35
2023-05-21T19:50:40.495Z,11.15
2023-05-21T19:53:55.476Z,10.90
2023-05-21T19:57:49.859Z,11.55
2023-05-21T20:01:15.849Z,10.82
2023-05-21T20:05:05.651Z,11.40
2023-05-21T21:16:12.793Z,11.60
2023-05-21T21:33:21.962Z,11.35
2023-05-21T21:36:28.783Z,11.98
2023-05-21T21:40:06.699Z,11.32
2023-05-21T21:43:14.608Z,11.73
2023-05-21T21:46:19.374Z,11.48
2023-05-21T21:49:23.687Z,11.30
2023-05-21T21:55:32.306Z,11.40
2023-05-21T21:58:36.547Z,11.25
2023-05-21T22:01:43.368Z,10.13
2023-05-21T22:04:48.098Z,10.80
2023-05-21T22:07:52.658Z,11.05
2023-05-21T22:10:56.945Z,11.90
2023-05-21T22:14:02.685Z,12.32
2023-05-21T23:08:38.364Z,11.45
